Pagina principale
METAR-TAF:

METAR-TAF

Aeroporti :

Ardabil, Iran

latitudine: 38-19-35N, longitudine: 048-25-28E, altezza: 1315 m

Osservazione

Il bollettino è stato emesso 1 ora e 9 minuti fa, alle 09:00 UTC
Vento 23 kt da est/nord-est
Temperature 26°C
Umidità 37%
Pressione 1019 hPa
Visibilità 10 km o più
Poco nuvoloso ad un'altezza di 4500 ft

METAR: OITL 260900Z 07023KT 9999 FEW045 26/10 Q1019

Ora: 14:39 (10:09 UTC)


TAF: mancante

Osservazioni e previsioni meteorologiche di più di 4000 aeroporti (messaggi METAR e TAF).

Le stazioni disponibili sono rappresentate dai dischi gialli e rossi sulla carta.

Puntare il mouse per vedere il nome della stazione.

Clicca sopra per visualizzare le osservazioni e previsioni meteorologiche.

Per cambiare la mappa : fare clic sui pulsanti verdi con una croce nera per ingrandire, il pulsante verde con un trattino per diminuire, o sulla freccia verde per le mappe adiacenti.


METAR-TAF: